Latest Weather Observations for Montague Island

IDN60901

Issued at 7:05 pm EDT Monday 20 October 2014 (issued every 10 minutes, with the page automatically refreshed every 10 minutes)

About weather observations | Map of Canberra area stations | Latest observations for Canberra area | Other Formats
Station Details ID: 069017 Name: MONTAGUE ISLAND LIGHTHOUSE Lat: -36.25 Lon: 150.23 Height: 52.0 m
Data from the previous 72 hours. | See also: Recent months at Montague Island
Date/Time
EDT
Tmp

°C
App
Tmp
°C
Dew
Point
°C
Rel
Hum
%
Delta-T

°C
Wind Press
QNH
hPa
Press
MSL
hPa
Rain
since
9 am
mm
Dir
 
Spd
km/h
Gust
km/h
Spd
kts
Gust
kts
20/07:00pm 14.7 10.7 8.2 65 3.2 SE 19 20 10 11 1032.0 1032.0 0.0
20/06:30pm 14.7 10.2 7.0 60 3.8 SE 20 30 11 16 1031.8 1031.8 0.0
20/06:00pm 14.8 10.4 7.6 62 3.5 SE 20 26 11 14 1031.5 1031.5 0.0
20/05:30pm 14.9 10.8 7.7 62 3.6 SE 19 24 10 13 1031.4 1031.4 0.0
20/05:00pm 15.2 11.0 7.5 60 3.8 SE 19 22 10 12 1031.3 1031.3 0.0
20/04:30pm 15.4 11.6 7.7 60 3.8 SE 17 24 9 13 1031.1 1031.1 0.0
20/04:00pm 15.3 10.9 7.3 59 3.9 SSE 20 26 11 14 1031.1 1031.1 0.0
20/03:30pm 15.3 10.6 7.8 61 3.8 SSE 22 30 12 16 1031.0 1031.0 0.0
20/03:00pm 15.1 9.7 8.1 63 3.5 SSE 26 33 14 18 1031.1 1031.1 0.0
20/02:30pm 15.3 10.1 8.8 65 3.3 SE 26 32 14 17 1031.1 1031.1 0.0
20/02:00pm 15.4 9.8 8.9 65 3.3 SE 28 35 15 19 1031.3 1031.3 0.0
20/01:30pm 15.3 9.5 9.4 68 3.0 SE 30 35 16 19 1031.4 1031.4 0.0
20/01:00pm 15.1 8.6 9.0 67 3.1 SSE 33 43 18 23 1031.4 1031.4 0.0
20/12:30pm 15.1 9.1 10.1 72 2.6 S 32 39 17 21 1031.5 1031.5 0.0
20/12:00pm 13.8 6.9 10.4 80 1.8 S 37 54 20 29 1031.7 1031.7 0.0
20/11:30am 15.8 8.3 10.8 72 2.7 S 41 56 22 30 1031.2 1031.2 0.0
20/11:00am 15.8 8.6 10.6 71 2.7 S 39 48 21 26 1031.3 1031.3 0.0
20/10:30am 15.3 8.8 10.5 73 2.5 S 35 48 19 26 1031.4 1031.4 0.0
20/10:00am 15.2 7.1 10.0 71 2.7 S 43 50 23 27 1031.2 1031.2 0.0
20/09:30am 15.2 6.9 10.2 72 2.6 S 44 52 24 28 1030.6 1030.6 0.0
20/09:00am 15.3 7.1 10.3 72 2.6 S 44 56 24 30 1030.1 1030.1 -
20/08:30am 15.6 6.8 9.7 68 3.1 S 46 56 25 30 1029.7 1029.7 -
20/08:00am 15.1 6.3 9.5 69 2.9 SSW 46 61 25 33 1029.2 1029.2 -
20/07:30am 14.7 5.4 9.1 69 2.9 SSW 48 59 26 32 1028.5 1028.5 -
20/07:00am 14.6 1.1 8.1 65 3.2 SSW 69 82 37 44 1027.4 1027.4 -
20/06:30am 14.7 1.6 8.4 66 3.2 S 67 82 36 44 1026.4 1026.4 -
20/06:13am 15.0 3.7 9.4 69 2.9 S 59 80 32 43 1026.0 1026.0 -
20/06:00am 15.4 3.0 8.2 62 3.6 SSW 63 76 34 41 1025.4 1025.4 -
20/05:30am 15.6 5.4 10.2 70 2.8 SSW 54 69 29 37 1024.7 1024.7 -
20/05:00am 15.7 4.4 10.7 72 2.6 SSW 61 76 33 41 1023.9 1023.9 -
20/04:30am 15.8 3.0 11.0 73 2.6 S 69 82 37 44 1022.9 1022.8 -
20/04:00am 16.0 2.5 10.3 69 3.0 S 72 87 39 47 1022.1 1022.0 -
20/03:39am 16.2 4.5 10.9 71 2.8 S 63 83 34 45 1022.0 1021.9 -
20/03:30am 16.3 4.9 11.7 74 2.5 S 63 78 34 42 1022.1 1022.0 -
20/03:00am 16.4 5.8 12.0 75 2.4 S 59 78 32 42 1021.7 1021.6 -
20/02:56am 16.4 5.7 11.6 73 2.6 S 59 78 32 42 1021.5 1021.4 -
20/02:30am 16.5 7.1 11.6 73 2.7 S 52 63 28 34 1021.6 1021.5 -
20/02:00am 16.9 9.0 12.6 76 2.4 SSE 46 59 25 32 1021.7 1021.6 -
20/01:30am 17.4 12.3 14.7 84 1.6 SSE 35 43 19 23 1021.7 1021.6 -
20/01:00am 17.6 11.9 14.1 80 2.0 SSE 37 44 20 24 1021.8 1021.7 -
20/12:45am 18.0 12.3 14.1 78 2.2 SSE 37 46 20 25 1021.4 1021.3 -
20/12:30am 18.4 16.0 15.5 83 1.7 S 22 35 12 19 1021.0 1020.9 -
20/12:00am 18.8 18.7 15.9 83 1.7 WSW 11 13 6 7 1020.3 1020.2 -
 
Date/Time
EDT
Tmp

°C
App
Tmp
°C
Dew
Point
°C
Rel
Hum
%
Delta-T

°C
Wind Press
QNH
hPa
Press
MSL
hPa
Rain
since
9 am
mm
Dir
 
Spd
km/h
Gust
km/h
Spd
kts
Gust
kts
19/11:30pm 20.4 19.9 15.8 75 2.7 W 13 17 7 9 1020.2 1020.1 -
19/11:00pm 19.4 19.3 16.1 81 2.0 W 11 13 6 7 1020.0 1019.9 -
19/10:30pm 17.8 17.8 16.3 91 0.9 WSW 11 15 6 8 1020.2 1020.1 -
19/10:00pm 17.7 17.8 16.4 92 0.8 WSW 11 15 6 8 1020.1 1020.0 -
19/09:30pm 17.7 17.0 16.4 92 0.8 N 15 20 8 11 1020.1 1020.0 -
19/09:00pm 18.1 16.6 16.4 90 1.0 N 19 24 10 13 1019.9 1019.8 0.0
19/08:30pm 18.4 16.1 16.6 89 1.1 N 24 30 13 16 1019.6 1019.5 -
19/08:00pm 18.3 16.7 16.6 90 1.0 N 20 30 11 16 1019.1 1019.0 -
19/07:30pm 18.4 16.5 16.6 89 1.1 N 22 26 12 14 1019.2 1019.1 -
19/07:00pm 18.7 17.1 16.5 87 1.3 N 20 28 11 15 1019.2 1019.1 -
19/06:30pm 19.1 17.7 16.5 85 1.6 N 19 30 10 16 1019.1 1019.0 -
19/06:00pm 18.9 17.7 16.1 84 1.7 N 17 24 9 13 1019.1 1019.0 -
19/05:30pm 19.2 17.7 16.2 83 1.8 N 19 24 10 13 1019.2 1019.1 -
19/05:00pm 19.6 18.2 16.6 83 1.8 N 19 26 10 14 1019.0 1018.9 -
19/04:30pm 20.1 18.3 16.9 82 1.9 N 22 32 12 17 1019.0 1018.9 -
19/04:00pm 19.8 17.6 16.8 83 1.8 N 24 33 13 18 1019.1 1019.0 -
19/03:30pm 19.5 17.2 16.7 84 1.7 N 24 33 13 18 1019.4 1019.3 -
19/03:00pm 19.8 17.4 16.4 81 2.0 N 24 32 13 17 1020.0 1019.9 -
19/02:30pm 19.8 17.3 16.1 79 2.2 NNE 24 30 13 16 1020.2 1020.1 -
19/02:00pm 19.8 16.7 15.7 77 2.4 NNE 26 30 14 16 1020.7 1020.6 -
19/01:30pm 19.6 15.8 14.6 73 2.9 N 28 32 15 17 1021.0 1020.9 -
19/01:00pm 19.1 15.6 14.4 74 2.7 NNE 26 32 14 17 1021.4 1021.3 -
19/12:30pm 18.0 14.5 13.3 74 2.7 NNE 24 32 13 17 1021.7 1021.6 -
19/12:00pm 18.4 14.9 13.3 72 2.9 NNE 24 30 13 16 1022.1 1022.0 -
19/11:30am 17.7 14.1 13.0 74 2.6 NNE 24 30 13 16 1022.5 1022.4 0.0
19/11:00am 17.6 14.4 13.1 75 2.5 N 22 28 12 15 1022.8 1022.7 0.0
19/10:30am 17.3 13.9 12.4 73 2.7 N 22 28 12 15 1023.2 1023.1 0.0
19/10:00am 17.2 14.4 12.7 75 2.5 N 19 26 10 14 1023.6 1023.6 0.0
19/09:30am 16.8 14.0 12.5 76 2.4 N 19 24 10 13 1023.8 1023.8 0.0
19/09:00am 15.8 12.4 11.4 75 2.4 N 20 28 11 15 1024.0 1024.0 0.0
19/08:30am 15.3 12.5 11.5 78 2.0 N 17 22 9 12 1024.3 1024.3 0.0
19/08:00am 14.9 13.1 12.0 83 1.6 N 13 19 7 10 1024.2 1024.2 0.0
19/07:30am 14.3 11.9 11.5 83 1.5 NNW 15 19 8 10 1024.1 1024.1 0.0
19/07:00am 13.8 12.0 12.2 90 0.9 NNW 13 15 7 8 1023.9 1023.9 0.0
19/06:30am 13.4 11.6 12.0 91 0.8 NNW 13 15 7 8 1023.8 1023.8 0.0
19/06:00am 13.5 11.7 12.1 91 0.8 NW 13 17 7 9 1023.7 1023.7 0.0
19/05:30am 13.7 10.7 11.9 89 1.0 NNW 19 20 10 11 1023.5 1023.5 0.0
19/05:00am 14.0 11.4 12.0 88 1.1 NNW 17 20 9 11 1023.5 1023.5 0.0
19/04:30am 14.0 11.4 11.9 87 1.1 N 17 20 9 11 1023.7 1023.7 0.0
19/04:00am 14.0 11.7 11.9 87 1.1 NNW 15 19 8 10 1024.0 1024.0 0.0
19/03:30am 14.2 12.3 11.9 86 1.2 NNW 13 17 7 9 1024.2 1024.2 0.0
19/03:00am 15.1 12.2 12.2 83 1.6 N 19 28 10 15 1024.3 1024.3 0.0
19/02:30am 15.3 11.4 12.1 81 1.7 N 24 30 13 16 1024.6 1024.6 0.0
19/02:00am 15.3 11.3 11.9 80 1.8 N 24 30 13 16 1025.0 1025.0 0.0
19/01:30am 15.5 11.7 12.3 81 1.8 N 24 33 13 18 1025.4 1025.4 0.0
19/01:00am 16.0 11.9 12.7 81 1.8 N 26 35 14 19 1025.5 1025.5 0.0
19/12:30am 16.0 11.5 12.7 81 1.8 N 28 37 15 20 1025.6 1025.6 0.0
19/12:00am 16.1 11.6 12.7 80 1.9 N 28 39 15 21 1025.7 1025.7 0.0
 
Date/Time
EDT
Tmp

°C
App
Tmp
°C
Dew
Point
°C
Rel
Hum
%
Delta-T

°C
Wind Press
QNH
hPa
Press
MSL
hPa
Rain
since
9 am
mm
Dir
 
Spd
km/h
Gust
km/h
Spd
kts
Gust
kts
18/11:30pm 16.1 10.9 12.8 81 1.8 N 32 39 17 21 1026.0 1026.0 0.0
18/11:00pm 16.5 11.1 12.3 76 2.3 N 32 46 17 25 1026.2 1026.2 0.0
18/10:30pm 16.6 11.7 12.4 76 2.3 N 30 43 16 23 1026.5 1026.5 0.0
18/10:00pm 16.8 11.4 12.3 75 2.5 N 32 44 17 24 1026.7 1026.7 0.0
18/09:30pm 17.0 10.3 12.3 74 2.6 N 39 44 21 24 1026.7 1026.7 0.0
18/09:00pm 17.0 10.9 11.9 72 2.8 N 35 43 19 23 1026.5 1026.5 0.0
18/08:30pm 17.1 11.4 11.8 71 2.9 N 33 41 18 22 1026.4 1026.4 0.0
18/08:00pm 17.0 11.5 11.7 71 2.9 NNE 32 37 17 20 1026.3 1026.3 0.0
18/07:30pm 17.0 11.3 11.7 71 2.9 NNE 33 39 18 21 1025.9 1025.9 0.0
18/07:00pm 17.0 11.3 11.3 69 3.1 NNE 32 37 17 20 1025.6 1025.6 0.0
18/06:30pm 16.9 11.2 11.2 69 3.1 NNE 32 39 17 21 1025.3 1025.3 0.0
18/06:00pm 17.1 11.0 10.5 65 3.5 NNE 33 39 18 21 1025.3 1025.3 0.0
18/05:30pm 17.1 11.3 10.9 67 3.3 NNE 32 37 17 20 1025.3 1025.3 0.0
18/05:00pm 17.3 12.4 11.3 68 3.2 NNE 28 33 15 18 1025.2 1025.2 0.0
18/04:30pm 17.4 12.2 11.7 69 3.1 NE 30 39 16 21 1025.2 1025.2 0.0
18/04:00pm 17.5 12.2 11.1 66 3.4 NE 30 37 16 20 1025.4 1025.4 0.0
18/03:30pm 17.5 12.5 10.9 65 3.6 NE 28 35 15 19 1025.8 1025.8 0.0
18/03:00pm 17.6 12.2 10.9 65 3.6 NE 30 37 16 20 1026.1 1026.1 0.0
18/02:30pm 17.6 12.2 10.9 65 3.6 NE 30 35 16 19 1026.4 1026.4 0.0
18/02:00pm 17.3 11.5 10.7 65 3.5 NE 32 37 17 20 1026.8 1026.8 0.0
18/01:30pm 17.5 12.3 10.4 63 3.8 NE 28 37 15 20 1027.2 1027.2 0.0
18/01:00pm 17.4 12.2 10.3 63 3.8 NE 28 33 15 18 1027.4 1027.4 0.0
18/12:30pm 17.3 12.3 9.7 61 4.0 NNE 26 35 14 19 1027.6 1027.6 0.0
18/12:00pm 17.1 11.8 9.8 62 3.8 NNE 28 35 15 19 1028.1 1028.1 0.0
18/11:30am 16.5 11.4 9.2 62 3.8 NNE 26 32 14 17 1028.6 1028.6 0.0
18/11:00am 17.0 12.7 9.2 60 4.0 NNE 22 26 12 14 1029.0 1029.0 0.0
18/10:30am 16.5 12.5 9.0 61 3.9 NNE 20 26 11 14 1029.0 1029.0 0.0
18/10:00am 16.3 13.7 9.5 64 3.5 N 13 19 7 10 1029.2 1029.2 0.0
18/09:30am 16.1 13.7 10.0 67 3.2 N 13 19 7 10 1029.2 1029.2 0.0
18/09:00am 15.4 12.9 9.7 69 2.9 N 13 19 7 10 1029.1 1029.1 0.0
18/08:30am 14.5 11.8 8.9 69 2.8 N 13 17 7 9 1029.1 1029.1 0.0
18/08:00am 14.3 11.8 8.3 67 3.0 NNW 11 17 6 9 1028.8 1028.8 0.0
18/07:30am 13.9 12.3 8.9 72 2.5 NNW 7 9 4 5 1028.7 1028.7 0.0
18/07:00am 13.3 11.7 8.8 74 2.3 NW 7 9 4 5 1028.4 1028.4 0.0
18/06:30am 12.6 10.7 9.1 79 1.8 WNW 9 11 5 6 1028.1 1028.1 0.0
18/06:00am 12.7 11.2 9.2 79 1.8 WNW 7 9 4 5 1027.9 1027.9 0.0
18/05:30am 12.8 11.2 8.7 76 2.1 WNW 7 9 4 5 1027.9 1027.9 0.0
18/05:00am 12.9 11.3 8.6 75 2.1 W 7 9 4 5 1027.7 1027.7 0.0
18/04:30am 12.9 10.9 8.8 76 2.1 W 9 13 5 7 1027.6 1027.6 0.0
18/04:00am 12.9 10.9 8.8 76 2.0 WSW 9 11 5 6 1027.8 1027.8 0.0
18/03:30am 12.7 10.4 9.0 78 1.9 W 11 11 6 6 1027.6 1027.6 0.0
18/03:00am 12.8 10.1 9.1 78 1.9 W 13 15 7 8 1027.8 1027.8 0.0
18/02:30am 12.5 10.1 8.8 78 1.9 W 11 13 6 7 1027.9 1027.9 0.0
18/02:00am 12.6 10.3 9.1 79 1.8 W 11 13 6 7 1028.0 1028.0 0.0
18/01:30am 12.7 10.6 8.2 74 2.2 W 9 11 5 6 1028.3 1028.3 0.0
18/01:00am 12.9 11.3 8.0 72 2.4 WSW 6 7 3 4 1028.6 1028.6 0.0
18/12:30am 13.4 12.6 6.3 62 3.4 CALM 0 2 0 1 1028.8 1028.8 0.0
18/12:00am 13.7 12.1 6.3 61 3.5 ESE 4 6 2 3 1028.9 1028.9 0.0
 
Date/Time
EDT
Tmp

°C
App
Tmp
°C
Dew
Point
°C
Rel
Hum
%
Delta-T

°C
Wind Press
QNH
hPa
Press
MSL
hPa
Rain
since
9 am
mm
Dir
 
Spd
km/h
Gust
km/h
Spd
kts
Gust
kts
17/11:30pm 13.9 12.0 6.7 62 3.5 SE 6 7 3 4 1028.9 1028.9 0.0
17/11:00pm 14.0 11.6 6.8 62 3.5 ESE 9 13 5 7 1028.8 1028.8 0.0
17/10:30pm 14.1 11.6 6.7 61 3.6 SE 9 13 5 7 1028.9 1028.9 0.0
17/10:00pm 14.2 11.4 6.8 61 3.6 SE 11 15 6 8 1028.8 1028.8 0.0
17/09:30pm 14.2 10.9 6.3 59 3.8 SE 13 19 7 10 1028.9 1028.9 0.0
17/09:00pm 14.2 10.1 6.3 59 3.8 SE 17 22 9 12 1028.7 1028.7 0.0
17/08:30pm 14.2 10.1 6.3 59 3.8 SSE 17 22 9 12 1028.4 1028.4 0.0
17/08:00pm 14.2 10.3 7.0 62 3.5 SE 17 22 9 12 1027.8 1027.8 0.0
17/07:30pm 14.1 9.2 6.7 61 3.6 SE 22 24 12 13 1027.7 1027.7 0.0

Latest Capital City Observations: Canberra | Sydney | Melbourne | Brisbane | Adelaide | Perth | Hobart | Darwin

Other Formats:

Comma delimited format used in spreadsheet applications
http://www.bom.gov.au/fwo/IDN60903/IDN60903.94939.axf

JavaScript Object Notation format (JSON) in row-major order
http://www.bom.gov.au/fwo/IDN60903/IDN60903.94939.json